createdAt,value
2019-04-21T00:00:21.096Z,2.40
2019-04-21T00:02:52.523Z,2.33
2019-04-21T00:05:40.011Z,2.80
2019-04-21T00:08:19.422Z,2.60
2019-04-21T00:10:48.658Z,2.40
2019-04-21T00:13:13.498Z,2.37
2019-04-21T00:15:36.775Z,2.80
2019-04-21T00:18:07.585Z,2.60
2019-04-21T00:20:41.428Z,2.60
2019-04-21T00:23:24.270Z,2.73
2019-04-21T00:25:47.884Z,2.07
2019-04-21T00:28:35.913Z,2.67
2019-04-21T00:31:00.542Z,2.40
2019-04-21T00:33:17.856Z,2.43
2019-04-21T00:35:52.611Z,2.50
2019-04-21T00:38:40.297Z,2.10
2019-04-21T00:41:08.876Z,2.60
2019-04-21T00:43:33.256Z,2.50
2019-04-21T00:46:02.240Z,2.53
2019-04-21T00:48:41.321Z,2.33
2019-04-21T00:51:25.808Z,2.40
2019-04-21T00:53:59.562Z,2.63
2019-04-21T00:56:21.993Z,2.70
2019-04-21T00:58:56.092Z,2.40
2019-04-21T01:01:28.040Z,3.00
2019-04-21T01:03:58.401Z,2.50
2019-04-21T01:06:33.476Z,2.37
2019-04-21T01:08:59.439Z,2.40
2019-04-21T01:11:44.219Z,2.83
2019-04-21T01:14:07.052Z,2.70
2019-04-21T01:16:35.026Z,2.83
2019-04-21T01:19:00.423Z,2.40
2019-04-21T01:21:14.463Z,2.50
2019-04-21T01:23:44.540Z,2.93
2019-04-21T01:26:29.029Z,2.43
2019-04-21T01:29:00.173Z,2.67
2019-04-21T01:31:34.852Z,2.77
2019-04-21T01:34:08.769Z,2.37
2019-04-21T01:36:38.844Z,3.10
2019-04-21T01:39:15.050Z,2.80
2019-04-21T01:41:46.232Z,2.70
2019-04-21T01:44:14.277Z,2.90
2019-04-21T01:46:40.685Z,2.90
2019-04-21T01:49:10.509Z,2.70
2019-04-21T01:52:03.146Z,2.37
2019-04-21T01:54:43.217Z,2.57
2019-04-21T01:57:17.549Z,2.70
2019-04-21T01:59:43.477Z,2.50
2019-04-21T02:02:24.200Z,2.50
2019-04-21T02:05:01.160Z,2.57
2019-04-21T02:07:27.355Z,2.33
2019-04-21T02:09:56.813Z,2.60
2019-04-21T02:12:30.213Z,2.70
2019-04-21T02:15:04.841Z,2.63
2019-04-21T02:17:28.082Z,2.90
2019-04-21T02:19:56.206Z,2.67
2019-04-21T02:22:56.020Z,3.27
2019-04-21T02:25:08.629Z,2.53
2019-04-21T02:27:36.263Z,2.90
2019-04-21T02:30:12.177Z,2.87
2019-04-21T02:32:51.026Z,2.73
2019-04-21T02:40:27.927Z,3.37
2019-04-21T02:45:23.454Z,3.00
2019-04-21T02:48:08.876Z,2.60
2019-04-21T02:50:26.100Z,3.07
2019-04-21T02:58:09.755Z,2.60
2019-04-21T03:03:37.778Z,2.70
2019-04-21T03:06:18.643Z,2.80
2019-04-21T03:11:14.763Z,2.80
2019-04-21T03:13:56.768Z,3.33
2019-04-21T03:16:23.053Z,2.83
2019-04-21T03:18:56.702Z,3.00
2019-04-21T03:21:22.085Z,2.70
2019-04-21T03:26:55.888Z,2.67
2019-04-21T03:31:49.459Z,2.97
2019-04-21T03:36:49.848Z,3.00
2019-04-21T03:39:18.321Z,2.83
2019-04-21T03:41:38.004Z,2.60
2019-04-21T03:44:09.864Z,2.57
2019-04-21T03:46:41.678Z,2.77
2019-04-21T03:49:32.583Z,2.90
2019-04-21T03:54:09.313Z,3.10
2019-04-21T03:57:06.042Z,2.97
2019-04-21T03:59:12.700Z,2.80
2019-04-21T04:02:24.669Z,2.93
2019-04-21T04:05:08.970Z,2.93
2019-04-21T04:07:59.285Z,3.50
2019-04-21T04:10:28.503Z,2.70
2019-04-21T04:12:50.433Z,3.50
2019-04-21T04:15:31.219Z,3.10
2019-04-21T04:17:56.446Z,3.00
2019-04-21T04:20:28.628Z,3.07
2019-04-21T04:23:07.871Z,2.70
2019-04-21T04:25:27.816Z,3.30
2019-04-21T04:30:39.578Z,2.83
2019-04-21T04:32:56.592Z,2.73
2019-04-21T04:35:46.617Z,3.23
2019-04-21T04:38:15.433Z,3.07
2019-04-21T04:40:51.710Z,3.30
2019-04-21T04:43:19.255Z,2.90
2019-04-21T04:46:00.491Z,3.00
2019-04-21T04:48:19.711Z,2.80
2019-04-21T04:50:55.478Z,3.20
2019-04-21T04:55:56.221Z,2.87
2019-04-21T04:58:29.683Z,3.10
2019-04-21T05:03:37.347Z,2.70
2019-04-21T05:11:39.872Z,3.00
2019-04-21T05:16:46.957Z,2.87
2019-04-21T05:19:10.069Z,3.10
2019-04-21T05:21:34.841Z,3.00
2019-04-21T05:24:08.084Z,3.10
2019-04-21T05:26:22.030Z,2.93
2019-04-21T05:28:52.673Z,2.43
2019-04-21T05:31:46.377Z,2.87
2019-04-21T05:37:09.602Z,3.40
2019-04-21T05:39:51.117Z,2.97
2019-04-21T05:42:11.000Z,3.10
2019-04-21T05:45:01.650Z,2.97
2019-04-21T05:47:37.494Z,3.23
2019-04-21T05:50:04.670Z,3.50
2019-04-21T05:52:32.967Z,3.77
2019-04-21T05:55:10.975Z,3.37
2019-04-21T05:57:38.129Z,3.60
2019-04-21T06:00:15.629Z,3.20
2019-04-21T06:02:55.225Z,3.67
2019-04-21T06:05:20.667Z,3.90
2019-04-21T06:07:48.677Z,3.60
2019-04-21T06:10:20.528Z,3.53
2019-04-21T06:12:59.447Z,3.77
2019-04-21T06:15:34.946Z,3.97
2019-04-21T06:17:57.844Z,3.43
2019-04-21T06:20:27.423Z,3.60
2019-04-21T06:23:00.954Z,3.70
2019-04-21T06:25:54.550Z,4.20
2019-04-21T06:28:04.649Z,4.00
2019-04-21T06:30:45.493Z,4.23
2019-04-21T06:33:01.856Z,4.30
2019-04-21T06:41:33.978Z,4.03
2019-04-21T06:49:18.777Z,4.27
2019-04-21T06:51:58.268Z,4.70
2019-04-21T06:54:30.607Z,4.83
2019-04-21T06:56:46.474Z,4.60
2019-04-21T06:59:12.036Z,5.37
2019-04-21T07:01:48.725Z,5.07
2019-04-21T07:04:25.238Z,4.90
2019-04-21T07:06:53.701Z,4.90
2019-04-21T07:11:53.850Z,5.17
2019-04-21T07:16:57.859Z,4.70
2019-04-21T07:19:30.700Z,4.37
2019-04-21T07:21:55.627Z,5.13
2019-04-21T07:24:33.367Z,5.47
2019-04-21T07:27:02.404Z,4.77
2019-04-21T07:29:34.473Z,4.43
2019-04-21T07:32:04.488Z,4.60
2019-04-21T07:37:20.032Z,4.57
2019-04-21T07:39:32.571Z,4.90
2019-04-21T07:42:04.933Z,4.23
2019-04-21T07:44:37.898Z,4.23
2019-04-21T07:47:11.950Z,4.70
2019-04-21T07:49:57.464Z,4.60
2019-04-21T07:52:49.360Z,4.37
2019-04-21T07:57:31.811Z,3.90
2019-04-21T08:02:40.734Z,4.20
2019-04-21T08:05:13.577Z,3.90
2019-04-21T08:10:13.889Z,4.10
2019-04-21T08:12:44.739Z,3.97
2019-04-21T08:15:20.094Z,4.60
2019-04-21T08:17:47.169Z,4.07
2019-04-21T08:20:18.427Z,4.37
2019-04-21T08:22:52.409Z,3.97
2019-04-21T08:25:19.488Z,4.57
2019-04-21T08:27:56.884Z,3.93
2019-04-21T08:30:27.429Z,4.13
2019-04-21T08:33:08.817Z,4.53
2019-04-21T08:37:55.618Z,4.60
2019-04-21T08:40:40.739Z,4.47
2019-04-21T08:42:59.825Z,4.20
2019-04-21T08:45:36.172Z,4.30
2019-04-21T08:48:04.257Z,4.37
2019-04-21T08:50:31.243Z,4.00
2019-04-21T08:53:08.082Z,4.00
2019-04-21T08:55:58.082Z,4.00
2019-04-21T08:58:39.490Z,4.63
2019-04-21T09:01:18.041Z,4.33
2019-04-21T09:03:58.794Z,4.50
2019-04-21T09:06:52.596Z,4.30
2019-04-21T09:09:03.660Z,4.50
2019-04-21T09:11:34.882Z,4.47
2019-04-21T09:14:07.726Z,3.93
2019-04-21T09:16:36.755Z,4.33
2019-04-21T09:19:04.411Z,4.00
2019-04-21T09:21:44.998Z,4.00
2019-04-21T09:24:18.901Z,3.97
2019-04-21T09:26:42.918Z,4.00
2019-04-21T09:29:07.862Z,3.83
2019-04-21T09:31:33.784Z,4.03
2019-04-21T09:34:03.180Z,3.80
2019-04-21T09:36:41.239Z,4.00
2019-04-21T09:39:09.178Z,3.90
2019-04-21T09:41:38.228Z,4.17
2019-04-21T09:44:13.961Z,3.67
2019-04-21T09:46:47.695Z,3.93
2019-04-21T09:49:15.702Z,4.13
2019-04-21T09:51:43.798Z,4.13
2019-04-21T09:54:20.468Z,4.07
2019-04-21T09:56:52.441Z,4.00
2019-04-21T09:59:23.579Z,3.43
2019-04-21T10:02:01.830Z,4.17
2019-04-21T10:04:19.190Z,3.57
2019-04-21T10:06:49.739Z,4.07
2019-04-21T10:09:21.612Z,4.10
2019-04-21T10:11:50.969Z,3.73
2019-04-21T10:14:20.568Z,3.43
2019-04-21T10:17:08.345Z,3.90
2019-04-21T10:19:39.741Z,3.90
2019-04-21T10:22:10.548Z,3.70
2019-04-21T10:24:40.535Z,3.93
2019-04-21T10:27:12.190Z,3.37
2019-04-21T10:29:44.101Z,3.60
2019-04-21T10:32:13.391Z,3.93
2019-04-21T10:34:43.365Z,3.77
2019-04-21T10:37:13.324Z,3.17
2019-04-21T10:39:42.940Z,3.23
2019-04-21T10:42:13.179Z,4.10
2019-04-21T10:44:43.215Z,4.30
2019-04-21T10:47:14.386Z,3.77
2019-04-21T10:49:44.820Z,3.93
2019-04-21T10:52:22.853Z,3.77
2019-04-21T10:55:11.324Z,3.60
2019-04-21T10:57:30.519Z,3.77
2019-04-21T11:00:01.368Z,2.83
2019-04-21T11:02:41.159Z,4.03
2019-04-21T11:05:12.516Z,3.50
2019-04-21T11:08:01.177Z,3.30
2019-04-21T11:10:22.169Z,3.70
2019-04-21T11:12:52.672Z,3.53
2019-04-21T11:15:23.340Z,3.53
2019-04-21T11:17:54.505Z,2.77
2019-04-21T11:20:24.753Z,2.70
2019-04-21T11:22:55.576Z,2.63
2019-04-21T11:25:26.237Z,2.70
2019-04-21T11:27:56.016Z,2.60
2019-04-21T11:30:25.669Z,2.00
2019-04-21T11:32:55.353Z,2.80
2019-04-21T11:35:25.505Z,2.60
2019-04-21T11:38:04.622Z,2.60
2019-04-21T11:40:27.681Z,2.30
2019-04-21T11:42:58.063Z,3.23
2019-04-21T11:45:30.570Z,3.07
2019-04-21T11:48:06.125Z,2.93
2019-04-21T11:50:37.009Z,2.70
2019-04-21T11:53:07.094Z,3.17
2019-04-21T11:55:41.688Z,2.90
2019-04-21T11:58:09.965Z,2.80
2019-04-21T12:00:39.897Z,2.93
2019-04-21T12:03:11.977Z,3.00
2019-04-21T12:05:41.442Z,2.87
2019-04-21T12:08:23.027Z,2.70
2019-04-21T12:10:42.416Z,2.90
2019-04-21T12:13:12.127Z,2.83
2019-04-21T12:15:42.970Z,2.30
2019-04-21T12:18:12.673Z,2.27
2019-04-21T12:20:43.122Z,2.50
2019-04-21T12:23:14.204Z,2.60
2019-04-21T12:25:45.551Z,3.00
2019-04-21T12:28:15.990Z,2.93
2019-04-21T12:30:49.516Z,2.60
2019-04-21T12:33:24.450Z,2.60
2019-04-21T12:35:54.004Z,2.97
2019-04-21T12:38:36.917Z,2.50
2019-04-21T12:40:54.892Z,2.47
2019-04-21T12:43:24.525Z,3.30
2019-04-21T12:45:54.159Z,2.63
2019-04-21T12:48:24.060Z,3.20
2019-04-21T12:50:54.248Z,2.90
2019-04-21T12:53:23.932Z,2.77
2019-04-21T12:55:53.796Z,2.97
2019-04-21T12:58:23.724Z,2.57
2019-04-21T13:00:54.629Z,3.17
2019-04-21T13:03:25.490Z,2.43
2019-04-21T13:05:55.899Z,2.60
2019-04-21T13:08:25.630Z,3.03
2019-04-21T13:10:56.075Z,3.03
2019-04-21T13:13:26.181Z,3.03
2019-04-21T13:15:56.005Z,2.60
2019-04-21T13:18:26.929Z,2.87
2019-04-21T13:20:59.275Z,2.87
2019-04-21T13:23:29.165Z,2.43
2019-04-21T13:26:01.211Z,2.50
2019-04-21T13:28:30.441Z,3.37
2019-04-21T13:31:00.330Z,2.60
2019-04-21T13:33:30.951Z,2.53
2019-04-21T13:36:00.707Z,2.57
2019-04-21T13:38:37.689Z,2.67
2019-04-21T13:41:25.884Z,2.40
2019-04-21T13:43:45.300Z,2.47
2019-04-21T13:46:15.496Z,2.60
2019-04-21T13:48:46.423Z,3.23
2019-04-21T13:51:17.469Z,2.60
2019-04-21T13:53:47.064Z,2.70
2019-04-21T13:56:16.602Z,2.37
2019-04-21T13:58:46.367Z,2.63
2019-04-21T14:01:16.170Z,2.30
2019-04-21T14:03:47.137Z,2.70
2019-04-21T14:06:18.320Z,2.50
2019-04-21T14:08:52.659Z,2.70
2019-04-21T14:11:23.070Z,2.57
2019-04-21T14:13:54.372Z,2.80
2019-04-21T14:16:24.506Z,2.53
2019-04-21T14:18:55.126Z,2.80
2019-04-21T14:21:25.076Z,2.47
2019-04-21T14:23:56.370Z,2.37
2019-04-21T14:26:27.033Z,2.30
2019-04-21T14:28:56.840Z,2.40
2019-04-21T14:31:26.484Z,2.40
2019-04-21T14:33:58.087Z,2.30
2019-04-21T14:36:28.693Z,2.20
2019-04-21T14:38:58.709Z,2.33
2019-04-21T14:41:28.557Z,2.43
2019-04-21T14:43:58.509Z,2.40
2019-04-21T14:46:39.553Z,2.17
2019-04-21T14:49:24.027Z,2.00
2019-04-21T14:52:07.541Z,2.47
2019-04-21T14:54:48.950Z,2.33
2019-04-21T14:57:18.962Z,2.40
2019-04-21T14:59:49.045Z,2.30
2019-04-21T15:02:20.140Z,1.90
2019-04-21T15:04:51.226Z,2.20
2019-04-21T15:15:46.060Z,2.00
2019-04-21T15:18:16.838Z,2.00
2019-04-21T15:20:48.626Z,2.07
2019-04-21T15:23:18.220Z,2.20
2019-04-21T15:25:48.136Z,2.10
2019-04-21T15:28:17.877Z,2.07
2019-04-21T15:30:47.581Z,2.00
2019-04-21T15:33:18.224Z,1.83
2019-04-21T15:35:49.079Z,1.77
2019-04-21T15:38:20.121Z,1.97
2019-04-21T15:40:55.477Z,2.03
2019-04-21T15:43:22.363Z,1.83
2019-04-21T15:45:52.908Z,2.10
2019-04-21T15:48:23.947Z,2.03
2019-04-21T15:50:54.617Z,1.90
2019-04-21T15:53:25.746Z,1.90
2019-04-21T15:55:59.527Z,2.20
2019-04-21T15:58:54.585Z,1.90
2019-04-21T16:01:30.245Z,2.10
2019-04-21T16:04:00.964Z,1.93
2019-04-21T16:06:31.915Z,2.40
2019-04-21T16:09:04.348Z,2.23
2019-04-21T16:11:33.672Z,2.30
2019-04-21T16:14:05.774Z,2.03
2019-04-21T16:16:36.177Z,2.10
2019-04-21T16:19:06.245Z,2.13
2019-04-21T16:21:40.080Z,2.40
2019-04-21T16:24:08.702Z,2.10
2019-04-21T16:26:40.416Z,2.37
2019-04-21T16:29:11.279Z,2.10
2019-04-21T16:40:59.760Z,2.30
2019-04-21T16:43:26.971Z,2.57
2019-04-21T16:45:57.151Z,1.97
2019-04-21T16:48:27.348Z,2.40
2019-04-21T16:50:57.578Z,2.33
2019-04-21T16:53:52.127Z,2.70
2019-04-21T16:56:26.898Z,2.47
2019-04-21T16:59:06.404Z,2.80
2019-04-21T17:01:36.458Z,2.10
2019-04-21T17:04:06.650Z,2.20
2019-04-21T17:06:38.288Z,2.00
2019-04-21T17:09:08.622Z,2.10
2019-04-21T17:11:40.128Z,2.53
2019-04-21T17:14:27.276Z,2.30
2019-04-21T17:17:02.842Z,2.33
2019-04-21T17:19:20.183Z,2.23
2019-04-21T17:21:43.727Z,2.20
2019-04-21T17:24:14.585Z,2.43
2019-04-21T17:26:46.056Z,2.13
2019-04-21T17:29:16.810Z,2.33
2019-04-21T17:31:47.692Z,2.53
2019-04-21T17:34:21.586Z,2.23
2019-04-21T17:36:48.865Z,2.57
2019-04-21T17:39:18.801Z,2.27
2019-04-21T17:42:00.375Z,2.63
2019-04-21T17:44:21.333Z,2.50
2019-04-21T17:46:56.341Z,2.20
2019-04-21T17:49:23.286Z,2.53
2019-04-21T17:52:21.353Z,2.73
2019-04-21T17:55:10.280Z,2.67
2019-04-21T17:57:53.009Z,2.83
2019-04-21T18:00:43.285Z,2.60
2019-04-21T18:03:01.773Z,3.00
2019-04-21T18:05:31.917Z,2.87
2019-04-21T18:07:55.993Z,4.63
2019-04-21T18:10:32.793Z,2.97
2019-04-21T18:12:55.508Z,2.87
2019-04-21T18:15:36.347Z,3.00
2019-04-21T18:17:48.184Z,2.90
2019-04-21T18:20:23.817Z,2.60
2019-04-21T18:23:22.803Z,2.87
2019-04-21T18:25:52.587Z,3.07
2019-04-21T18:28:16.578Z,2.67
2019-04-21T18:30:56.299Z,3.20
2019-04-21T18:33:31.751Z,3.17
2019-04-21T18:36:33.019Z,3.00
2019-04-21T18:39:37.885Z,5.23
2019-04-21T18:42:17.531Z,4.23
2019-04-21T18:48:24.599Z,4.37
2019-04-21T18:51:02.992Z,6.80
2019-04-21T18:53:44.927Z,4.90
2019-04-21T18:56:06.521Z,4.40
2019-04-21T18:58:35.982Z,4.23
2019-04-21T19:01:12.657Z,4.67
2019-04-21T19:03:42.999Z,4.57
2019-04-21T19:06:14.569Z,6.80
2019-04-21T19:09:01.190Z,5.27
2019-04-21T19:11:28.179Z,5.43
2019-04-21T19:16:47.269Z,4.43
2019-04-21T19:21:49.969Z,4.77
2019-04-21T19:24:24.262Z,6.00
2019-04-21T19:27:01.180Z,11.60
2019-04-21T19:29:35.952Z,6.57
2019-04-21T19:31:59.440Z,8.37
2019-04-21T19:34:14.342Z,6.57
2019-04-21T19:36:48.807Z,5.63
2019-04-21T19:39:18.639Z,6.87
2019-04-21T19:41:56.141Z,6.20
2019-04-21T19:44:34.001Z,7.87
2019-04-21T19:47:05.188Z,6.27
2019-04-21T19:49:38.261Z,10.03
2019-04-21T19:51:57.519Z,6.20
2019-04-21T19:54:27.714Z,7.63
2019-04-21T19:56:53.396Z,7.70
2019-04-21T19:59:34.043Z,5.93
2019-04-21T20:01:56.086Z,5.70
2019-04-21T20:04:34.341Z,5.93
2019-04-21T20:07:05.300Z,5.00
2019-04-21T20:09:45.126Z,5.80
2019-04-21T20:12:18.921Z,5.47
2019-04-21T20:14:55.767Z,6.20
2019-04-21T20:17:14.907Z,4.50
2019-04-21T20:19:34.358Z,4.87
2019-04-21T20:22:05.302Z,4.90
2019-04-21T20:24:37.805Z,4.87
2019-04-21T20:27:14.122Z,4.73
2019-04-21T20:29:57.986Z,4.33
2019-04-21T20:32:31.702Z,3.97
2019-04-21T20:35:00.907Z,4.47
2019-04-21T20:37:29.665Z,3.93
2019-04-21T20:39:50.252Z,4.03
2019-04-21T20:42:28.015Z,3.67
2019-04-21T20:45:16.059Z,3.93
2019-04-21T20:47:27.241Z,3.20
2019-04-21T20:50:03.314Z,3.60
2019-04-21T20:52:43.355Z,3.73
2019-04-21T20:55:07.714Z,3.00
2019-04-21T20:57:35.333Z,3.40
2019-04-21T21:00:12.352Z,2.77
2019-04-21T21:02:48.426Z,2.80
2019-04-21T21:05:14.311Z,3.10
2019-04-21T21:07:50.468Z,2.60
2019-04-21T21:10:18.141Z,2.83
2019-04-21T21:12:57.333Z,2.57
2019-04-21T21:15:17.111Z,2.83
2019-04-21T21:18:04.418Z,2.80
2019-04-21T21:20:24.575Z,2.90
2019-04-21T21:22:53.287Z,2.43
2019-04-21T21:25:38.358Z,2.47
2019-04-21T21:27:53.190Z,2.30
2019-04-21T21:30:29.035Z,2.33
2019-04-21T21:33:00.834Z,2.47
2019-04-21T21:35:34.159Z,2.47
2019-04-21T21:38:06.685Z,2.77
2019-04-21T21:40:36.647Z,2.23
2019-04-21T21:42:51.195Z,2.37
2019-04-21T21:45:24.886Z,2.37
2019-04-21T21:48:11.518Z,2.40
2019-04-21T21:50:39.925Z,2.20
2019-04-21T21:53:04.287Z,2.50
2019-04-21T21:55:27.789Z,2.40
2019-04-21T21:58:01.904Z,2.27
2019-04-21T22:00:30.225Z,2.30
2019-04-21T22:03:12.014Z,2.20
2019-04-21T22:05:42.384Z,2.50
2019-04-21T22:08:04.784Z,2.30
2019-04-21T22:10:34.976Z,2.10
2019-04-21T22:13:09.669Z,2.10
2019-04-21T22:15:37.566Z,2.57
2019-04-21T22:18:25.834Z,1.97
2019-04-21T22:20:53.787Z,1.87
2019-04-21T22:23:23.326Z,2.10
2019-04-21T22:25:44.015Z,2.10
2019-04-21T22:28:13.895Z,1.97
2019-04-21T22:30:47.417Z,2.13
2019-04-21T22:33:18.097Z,2.23
2019-04-21T22:35:53.208Z,2.20
2019-04-21T22:38:35.218Z,2.10
2019-04-21T22:41:00.366Z,2.13
2019-04-21T22:43:31.754Z,2.10
2019-04-21T22:45:53.584Z,2.30
2019-04-21T22:48:27.261Z,1.97
2019-04-21T22:50:56.148Z,2.40
2019-04-21T22:53:29.154Z,2.10
2019-04-21T22:56:05.752Z,2.10
2019-04-21T22:58:33.518Z,2.00
2019-04-21T23:01:03.368Z,2.13
2019-04-21T23:03:32.575Z,2.23
2019-04-21T23:06:09.955Z,2.40
2019-04-21T23:08:40.067Z,2.27
2019-04-21T23:11:10.906Z,2.23
2019-04-21T23:13:38.620Z,2.10
2019-04-21T23:16:09.877Z,2.00
2019-04-21T23:18:55.492Z,2.17
2019-04-21T23:21:24.706Z,2.40
2019-04-21T23:24:05.838Z,2.23
2019-04-21T23:26:33.128Z,1.83
2019-04-21T23:29:07.582Z,2.00
2019-04-21T23:31:40.363Z,1.97
2019-04-21T23:33:50.472Z,2.03
2019-04-21T23:36:25.900Z,2.17
2019-04-21T23:38:53.738Z,1.87
2019-04-21T23:41:26.013Z,1.93
2019-04-21T23:44:00.396Z,2.10
2019-04-21T23:46:29.854Z,2.20
2019-04-21T23:49:12.432Z,2.03
2019-04-21T23:51:41.001Z,1.73
2019-04-21T23:53:59.878Z,1.83
2019-04-21T23:56:34.061Z,1.77
2019-04-21T23:59:04.142Z,1.83
